createdAt,value
2022-10-28T00:01:13.734Z,6.13
2022-10-28T00:03:43.740Z,6.15
2022-10-28T00:06:15.762Z,5.97
2022-10-28T00:08:43.945Z,5.85
2022-10-28T00:11:13.960Z,5.90
2022-10-28T00:13:43.078Z,5.38
2022-10-28T00:16:13.254Z,6.03
2022-10-28T00:18:42.258Z,5.65
2022-10-28T00:21:13.692Z,5.85
2022-10-28T00:23:42.131Z,5.25
2022-10-28T00:26:11.973Z,6.43
2022-10-28T00:28:43.912Z,4.93
2022-10-28T00:31:13.643Z,5.22
2022-10-28T00:33:41.713Z,5.63
2022-10-28T00:36:13.484Z,5.50
2022-10-28T00:38:41.962Z,5.82
2022-10-28T00:41:10.687Z,5.80
2022-10-28T00:43:41.028Z,6.00
2022-10-28T00:46:21.580Z,5.88
2022-10-28T00:48:55.704Z,6.00
2022-10-28T00:51:27.389Z,5.35
2022-10-28T00:53:57.116Z,5.85
2022-10-28T00:59:03.098Z,6.72
2022-10-28T01:01:31.339Z,5.97
2022-10-28T01:03:59.665Z,6.28
2022-10-28T01:06:30.217Z,5.57
2022-10-28T01:09:00.055Z,5.63
2022-10-28T01:11:46.894Z,5.28
2022-10-28T01:14:28.084Z,6.32
2022-10-28T01:17:13.436Z,5.80
2022-10-28T01:20:19.234Z,5.82
2022-10-28T01:22:56.632Z,5.10
2022-10-28T01:25:43.084Z,5.93
2022-10-28T01:28:25.252Z,5.38
2022-10-28T01:31:20.194Z,5.65
2022-10-28T01:36:28.481Z,5.78
2022-10-28T01:39:02.539Z,5.03
2022-10-28T01:41:35.345Z,5.88
2022-10-28T01:44:08.121Z,6.13
2022-10-28T01:46:43.035Z,5.13
2022-10-28T01:49:15.188Z,5.50
2022-10-28T01:51:46.029Z,5.82
2022-10-28T01:54:18.248Z,5.93
2022-10-28T01:56:48.288Z,5.78
2022-10-28T01:59:20.289Z,5.18
2022-10-28T02:01:49.710Z,5.28
2022-10-28T02:04:18.041Z,5.63
2022-10-28T02:06:49.225Z,5.70
2022-10-28T02:09:28.731Z,5.70
2022-10-28T02:12:20.744Z,5.53
2022-10-28T02:15:17.439Z,5.72
2022-10-28T02:17:57.849Z,6.07
2022-10-28T02:20:35.955Z,6.07
2022-10-28T02:23:12.370Z,5.80
2022-10-28T02:25:46.097Z,5.53
2022-10-28T02:28:17.353Z,4.85
2022-10-28T02:30:49.758Z,5.72
2022-10-28T02:33:22.632Z,5.43
2022-10-28T02:35:54.941Z,6.40
2022-10-28T02:38:30.232Z,6.35
2022-10-28T02:41:02.914Z,6.40
2022-10-28T02:43:33.718Z,6.65
2022-10-28T02:46:03.407Z,7.38
2022-10-28T02:48:38.330Z,6.78
2022-10-28T02:51:10.512Z,7.90
2022-10-28T02:53:47.346Z,8.30
2022-10-28T02:56:17.312Z,8.15
2022-10-28T02:58:47.518Z,8.30
2022-10-28T03:01:15.884Z,8.32
2022-10-28T03:03:45.413Z,8.27
2022-10-28T03:06:13.542Z,8.02
2022-10-28T03:08:41.558Z,7.70
2022-10-28T03:11:09.422Z,6.47
2022-10-28T03:13:37.311Z,6.70
2022-10-28T03:16:05.740Z,5.88
2022-10-28T03:18:33.731Z,6.85
2022-10-28T03:21:02.969Z,5.80
2022-10-28T03:23:30.933Z,5.93
2022-10-28T03:25:58.797Z,6.28
2022-10-28T03:28:26.948Z,6.20
2022-10-28T03:30:54.819Z,6.90
2022-10-28T03:33:22.705Z,5.70
2022-10-28T03:35:50.927Z,5.40
2022-10-28T03:38:20.250Z,6.07
2022-10-28T03:40:51.771Z,5.50
2022-10-28T03:43:19.993Z,6.35
2022-10-28T03:45:49.116Z,6.32
2022-10-28T03:48:17.226Z,5.80
2022-10-28T03:50:45.133Z,5.43
2022-10-28T03:53:13.130Z,5.70
2022-10-28T03:55:42.422Z,6.35
2022-10-28T03:58:10.533Z,6.22
2022-10-28T04:00:38.414Z,5.65
2022-10-28T04:03:06.298Z,5.47
2022-10-28T04:05:34.172Z,5.68
2022-10-28T04:08:02.045Z,6.30
2022-10-28T04:10:30.030Z,6.10
2022-10-28T04:13:02.495Z,6.28
2022-10-28T04:15:30.894Z,6.05
2022-10-28T04:17:59.071Z,5.72
2022-10-28T04:20:27.950Z,6.00
2022-10-28T04:22:57.307Z,5.10
2022-10-28T04:25:26.669Z,5.60
2022-10-28T04:27:54.952Z,6.20
2022-10-28T04:30:24.931Z,5.45
2022-10-28T04:32:52.764Z,5.47
2022-10-28T04:35:20.636Z,5.72
2022-10-28T04:37:48.523Z,5.53
2022-10-28T04:40:16.510Z,5.22
2022-10-28T04:42:44.621Z,6.10
2022-10-28T04:45:12.749Z,5.80
2022-10-28T04:47:41.992Z,5.72
2022-10-28T04:50:10.586Z,5.47
2022-10-28T04:52:38.522Z,5.80
2022-10-28T04:55:07.223Z,5.65
2022-10-28T04:57:35.109Z,5.60
2022-10-28T05:00:03.161Z,5.90
2022-10-28T05:02:32.627Z,5.63
2022-10-28T05:05:04.678Z,6.35
2022-10-28T05:07:32.823Z,5.85
2022-10-28T05:10:00.879Z,6.15
2022-10-28T05:12:31.593Z,6.32
2022-10-28T05:14:59.432Z,5.30
2022-10-28T05:17:27.894Z,6.07
2022-10-28T05:19:55.799Z,5.35
2022-10-28T05:22:25.251Z,5.53
2022-10-28T05:24:54.272Z,6.28
2022-10-28T05:27:22.682Z,5.70
2022-10-28T05:29:51.537Z,5.28
2022-10-28T05:32:19.408Z,5.22
2022-10-28T05:34:47.721Z,6.15
2022-10-28T05:37:15.853Z,6.07
2022-10-28T05:39:45.096Z,6.30
2022-10-28T05:42:13.059Z,5.97
2022-10-28T05:44:41.205Z,4.90
2022-10-28T05:47:09.095Z,5.57
2022-10-28T05:49:39.230Z,5.82
2022-10-28T05:52:07.077Z,5.93
2022-10-28T05:54:34.985Z,6.05
2022-10-28T05:57:04.604Z,7.00
2022-10-28T05:59:32.482Z,5.45
2022-10-28T06:02:00.441Z,5.60
2022-10-28T06:04:28.431Z,6.03
2022-10-28T06:06:57.166Z,6.28
2022-10-28T06:09:25.047Z,6.30
2022-10-28T06:11:51.494Z,6.03
2022-10-28T06:14:21.092Z,5.30
2022-10-28T06:16:48.981Z,5.70
2022-10-28T06:19:19.611Z,5.75
2022-10-28T06:21:47.695Z,6.28
2022-10-28T06:24:15.896Z,5.40
2022-10-28T06:26:43.952Z,6.32
2022-10-28T06:29:12.685Z,5.85
2022-10-28T06:31:44.010Z,5.15
2022-10-28T06:34:13.402Z,5.53
2022-10-28T06:36:41.390Z,5.93
2022-10-28T06:39:09.733Z,5.65
2022-10-28T06:41:37.629Z,6.10
2022-10-28T06:44:05.961Z,5.78
2022-10-28T06:46:35.719Z,5.30
2022-10-28T06:49:05.843Z,4.97
2022-10-28T06:51:33.979Z,5.88
2022-10-28T06:54:02.399Z,5.63
2022-10-28T06:56:30.289Z,5.68
2022-10-28T06:58:58.332Z,6.55
2022-10-28T07:01:26.343Z,6.43
2022-10-28T07:03:54.493Z,5.50
2022-10-28T07:06:23.749Z,5.60
2022-10-28T07:08:52.370Z,5.40
2022-10-28T07:11:20.312Z,6.20
2022-10-28T07:13:49.083Z,5.63
2022-10-28T07:16:17.378Z,5.35
2022-10-28T07:18:45.523Z,6.00
2022-10-28T07:21:14.401Z,6.50
2022-10-28T07:23:43.691Z,5.63
2022-10-28T07:26:12.064Z,5.68
2022-10-28T07:28:40.062Z,6.35
2022-10-28T07:31:08.312Z,6.25
2022-10-28T07:33:36.451Z,6.63
2022-10-28T07:36:05.901Z,6.82
2022-10-28T07:38:34.544Z,6.25
2022-10-28T07:41:07.030Z,6.72
2022-10-28T07:43:37.265Z,6.32
2022-10-28T07:46:06.467Z,6.78
2022-10-28T07:48:38.225Z,6.28
2022-10-28T07:51:07.576Z,7.43
2022-10-28T07:53:36.156Z,6.78
2022-10-28T07:56:09.811Z,6.03
2022-10-28T07:58:38.022Z,6.38
2022-10-28T08:01:07.333Z,7.00
2022-10-28T08:03:38.876Z,6.53
2022-10-28T08:06:10.040Z,6.82
2022-10-28T08:08:38.516Z,7.32
2022-10-28T08:11:19.309Z,6.88
2022-10-28T08:13:47.735Z,6.85
2022-10-28T08:16:15.935Z,6.85
2022-10-28T08:18:45.793Z,6.43
2022-10-28T08:21:15.141Z,6.60
2022-10-28T08:23:46.588Z,6.82
2022-10-28T08:26:17.500Z,8.20
2022-10-28T08:28:45.753Z,7.70
2022-10-28T08:31:14.133Z,7.45
2022-10-28T08:33:44.421Z,7.20
2022-10-28T08:36:14.670Z,8.50
2022-10-28T08:38:45.711Z,7.68
2022-10-28T08:41:36.422Z,8.30
2022-10-28T08:44:37.519Z,7.32
2022-10-28T08:47:17.109Z,7.38
2022-10-28T08:49:49.344Z,7.03
2022-10-28T08:52:27.659Z,7.60
2022-10-28T08:55:01.698Z,8.40
2022-10-28T08:57:37.523Z,7.05
2022-10-28T09:00:08.936Z,7.65
2022-10-28T09:02:52.451Z,7.45
2022-10-28T09:05:23.573Z,7.38
2022-10-28T09:07:51.997Z,7.80
2022-10-28T09:10:31.792Z,7.07
2022-10-28T09:13:07.557Z,7.30
2022-10-28T09:18:52.455Z,6.97
2022-10-28T09:21:24.299Z,7.63
2022-10-28T09:23:57.478Z,7.30
2022-10-28T09:26:37.272Z,6.68
2022-10-28T09:32:16.454Z,7.13
2022-10-28T09:34:48.016Z,6.88
2022-10-28T09:37:21.139Z,5.72
2022-10-28T09:39:52.544Z,6.30
2022-10-28T09:42:25.666Z,6.28
2022-10-28T09:44:59.425Z,6.32
2022-10-28T09:47:31.823Z,6.35
2022-10-28T09:52:56.642Z,6.88
2022-10-28T09:57:53.453Z,6.22
2022-10-28T10:03:08.969Z,6.38
2022-10-28T10:05:43.256Z,5.13
2022-10-28T10:10:47.836Z,5.20
2022-10-28T10:16:14.708Z,5.25
2022-10-28T10:18:48.444Z,5.13
2022-10-28T10:24:02.371Z,5.45
2022-10-28T10:26:34.488Z,4.88
2022-10-28T10:29:02.464Z,4.57
2022-10-28T10:31:32.461Z,5.55
2022-10-28T10:36:50.967Z,5.45
2022-10-28T10:42:18.276Z,4.93
2022-10-28T10:44:48.027Z,5.78
2022-10-28T10:47:22.857Z,4.93
2022-10-28T10:49:52.089Z,5.20
2022-10-28T10:52:23.756Z,4.70
2022-10-28T10:55:08.117Z,4.80
2022-10-28T10:57:36.443Z,5.55
2022-10-28T11:00:05.972Z,5.25
2022-10-28T11:02:39.809Z,5.03
2022-10-28T11:05:10.856Z,5.68
2022-10-28T11:07:41.002Z,5.72
2022-10-28T11:10:23.461Z,4.70
2022-10-28T11:12:57.456Z,5.18
2022-10-28T11:18:21.280Z,4.78
2022-10-28T11:23:51.477Z,5.03
2022-10-28T11:32:23.358Z,4.57
2022-10-28T11:35:04.553Z,4.75
2022-10-28T11:40:33.121Z,5.07
2022-10-28T11:46:10.467Z,5.03
2022-10-28T11:51:56.596Z,5.18
2022-10-28T11:54:43.303Z,5.13
2022-10-28T12:00:23.555Z,4.70
2022-10-28T12:03:04.223Z,4.40
2022-10-28T12:05:37.100Z,4.75
2022-10-28T12:08:26.963Z,4.75
2022-10-28T12:11:06.606Z,4.05
2022-10-28T12:16:34.247Z,4.13
2022-10-28T12:19:10.455Z,4.45
2022-10-28T12:21:41.818Z,4.97
2022-10-28T12:27:05.958Z,5.25
2022-10-28T12:29:38.781Z,4.13
2022-10-28T12:32:10.927Z,4.95
2022-10-28T12:34:44.428Z,4.80
2022-10-28T12:37:19.202Z,3.97
2022-10-28T12:39:57.082Z,4.75
2022-10-28T12:42:30.376Z,4.60
2022-10-28T12:53:36.616Z,4.55
2022-10-28T12:56:10.545Z,4.00
2022-10-28T12:58:45.897Z,4.03
2022-10-28T13:01:16.809Z,4.10
2022-10-28T13:03:45.224Z,4.07
2022-10-28T13:06:32.402Z,3.40
2022-10-28T13:09:24.247Z,4.15
2022-10-28T13:12:22.028Z,3.60
2022-10-28T13:18:27.756Z,3.58
2022-10-28T13:21:11.286Z,3.90
2022-10-28T13:26:33.001Z,4.18
2022-10-28T13:29:07.162Z,4.72
2022-10-28T13:31:40.651Z,4.55
2022-10-28T13:34:10.543Z,3.50
2022-10-28T13:36:42.399Z,4.20
2022-10-28T13:39:25.232Z,3.85
2022-10-28T13:42:26.811Z,4.35
2022-10-28T13:44:57.548Z,3.58
2022-10-28T13:47:28.384Z,4.18
2022-10-28T13:50:42.539Z,3.88
2022-10-28T13:53:56.393Z,4.85
2022-10-28T13:56:49.323Z,4.18
2022-10-28T13:59:24.907Z,4.20
2022-10-28T14:02:07.649Z,3.85
2022-10-28T14:04:55.983Z,4.88
2022-10-28T14:07:28.205Z,4.00
2022-10-28T14:10:19.253Z,4.05
2022-10-28T14:12:51.772Z,3.80
2022-10-28T14:21:12.795Z,4.15
2022-10-28T14:24:10.163Z,4.22
2022-10-28T14:27:20.304Z,4.13
2022-10-28T14:32:44.887Z,3.83
2022-10-28T14:35:34.894Z,4.47
2022-10-28T14:38:46.559Z,4.20
2022-10-28T14:44:42.920Z,3.58
2022-10-28T14:50:20.394Z,4.10
2022-10-28T14:52:52.024Z,4.50
2022-10-28T15:01:22.755Z,3.92
2022-10-28T15:03:54.034Z,4.45
2022-10-28T15:06:43.694Z,4.07
2022-10-28T15:09:25.319Z,4.10
2022-10-28T15:11:57.329Z,3.70
2022-10-28T15:14:34.434Z,3.97
2022-10-28T15:17:12.341Z,4.47
2022-10-28T15:19:40.641Z,4.88
2022-10-28T15:22:15.477Z,5.10
2022-10-28T15:24:54.213Z,4.55
2022-10-28T15:27:22.955Z,4.22
2022-10-28T15:32:36.924Z,4.75
2022-10-28T15:35:39.691Z,4.35
2022-10-28T15:38:33.894Z,3.83
2022-10-28T15:41:03.189Z,4.00
2022-10-28T15:43:32.654Z,3.60
2022-10-28T15:46:12.021Z,4.18
2022-10-28T15:48:40.015Z,4.18
2022-10-28T15:51:16.064Z,3.97
2022-10-28T15:53:45.074Z,3.78
2022-10-28T15:56:25.199Z,4.20
2022-10-28T15:59:09.162Z,4.72
2022-10-28T16:01:39.488Z,4.40
2022-10-28T16:07:13.427Z,3.63
2022-10-28T16:09:47.260Z,4.15
2022-10-28T16:12:18.755Z,3.88
2022-10-28T16:14:48.698Z,3.80
2022-10-28T16:17:19.505Z,4.28
2022-10-28T16:22:40.868Z,4.32
2022-10-28T16:25:15.139Z,4.65
2022-10-28T16:30:30.230Z,4.40
2022-10-28T16:32:58.536Z,4.50
2022-10-28T16:35:26.606Z,4.85
2022-10-28T16:43:30.239Z,5.50
2022-10-28T16:45:59.949Z,6.35
2022-10-28T16:48:29.938Z,5.90
2022-10-28T16:51:00.193Z,5.78
2022-10-28T16:53:31.244Z,6.57
2022-10-28T16:55:59.827Z,5.72
2022-10-28T16:58:30.293Z,5.03
2022-10-28T17:00:58.651Z,5.00
2022-10-28T17:03:26.577Z,5.53
2022-10-28T17:05:54.432Z,5.07
2022-10-28T17:11:07.836Z,4.88
2022-10-28T17:13:37.149Z,5.07
2022-10-28T17:16:05.351Z,5.45
2022-10-28T17:18:33.460Z,4.85
2022-10-28T17:23:47.816Z,4.28
2022-10-28T17:26:15.934Z,5.28
2022-10-28T17:28:45.215Z,4.50
2022-10-28T17:31:13.146Z,4.97
2022-10-28T17:33:41.171Z,4.72
2022-10-28T17:36:10.160Z,4.85
2022-10-28T17:38:38.111Z,6.22
2022-10-28T17:41:06.306Z,7.13
2022-10-28T17:43:34.228Z,7.10
2022-10-28T17:48:53.309Z,6.47
2022-10-28T17:54:08.345Z,5.00
2022-10-28T17:56:36.708Z,6.10
2022-10-28T17:59:06.209Z,5.28
2022-10-28T18:01:36.341Z,5.65
2022-10-28T18:04:06.146Z,6.30
2022-10-28T18:09:20.067Z,6.25
2022-10-28T18:11:48.003Z,6.38
2022-10-28T18:17:03.055Z,8.35
2022-10-28T18:19:30.935Z,6.13
2022-10-28T18:21:58.812Z,6.00
2022-10-28T18:24:26.758Z,5.97
2022-10-28T18:26:56.834Z,6.68
2022-10-28T18:29:25.190Z,5.40
2022-10-28T18:31:53.122Z,6.50
2022-10-28T18:34:23.752Z,5.30
2022-10-28T18:36:51.742Z,7.57
2022-10-28T18:39:19.653Z,7.47
2022-10-28T18:44:34.169Z,6.57
2022-10-28T18:49:49.280Z,6.30
2022-10-28T18:52:17.365Z,5.32
2022-10-28T18:57:30.632Z,7.10
2022-10-28T19:00:17.480Z,7.38
2022-10-28T19:02:47.812Z,5.78
2022-10-28T19:08:03.364Z,5.88
2022-10-28T19:10:31.373Z,5.68
2022-10-28T19:15:48.038Z,5.90
2022-10-28T19:21:05.561Z,6.10
2022-10-28T19:23:33.540Z,5.68
2022-10-28T19:28:48.803Z,6.05
2022-10-28T19:31:18.571Z,5.22
2022-10-28T19:36:33.339Z,5.15
2022-10-28T19:39:01.321Z,4.70
2022-10-28T19:41:30.988Z,5.30
2022-10-28T19:44:00.719Z,5.32
2022-10-28T19:46:29.505Z,4.90
2022-10-28T19:48:59.441Z,4.75
2022-10-28T19:54:16.183Z,5.28
2022-10-28T19:56:45.250Z,5.43
2022-10-28T19:59:13.136Z,4.63
2022-10-28T20:01:42.183Z,5.50
2022-10-28T20:06:57.675Z,5.97
2022-10-28T20:09:29.054Z,5.05
2022-10-28T20:11:57.135Z,5.80
2022-10-28T20:14:25.073Z,5.82
2022-10-28T20:16:53.146Z,5.95
2022-10-28T20:19:21.004Z,5.35
2022-10-28T20:21:50.011Z,4.80
2022-10-28T20:24:18.315Z,4.95
2022-10-28T20:26:47.680Z,5.22
2022-10-28T20:29:15.556Z,5.65
2022-10-28T20:31:43.399Z,4.68
2022-10-28T20:34:11.366Z,5.40
2022-10-28T20:47:44.344Z,4.63
2022-10-28T20:50:12.298Z,5.47
2022-10-28T20:52:41.181Z,5.18
2022-10-28T20:55:09.558Z,4.47
2022-10-28T21:03:11.003Z,4.55
2022-10-28T21:05:39.257Z,5.30
2022-10-28T21:08:07.233Z,5.70
2022-10-28T21:10:35.383Z,4.60
2022-10-28T21:18:37.742Z,4.32
2022-10-28T21:23:53.613Z,4.95
2022-10-28T21:29:09.044Z,4.75
2022-10-28T21:31:36.998Z,4.70
2022-10-28T21:34:07.442Z,4.53
2022-10-28T21:42:07.618Z,4.47
2022-10-28T21:44:36.862Z,4.20
2022-10-28T21:47:04.789Z,4.80
2022-10-28T21:49:32.899Z,4.97
2022-10-28T21:52:00.763Z,4.82
2022-10-28T21:54:28.623Z,5.18
2022-10-28T21:56:56.493Z,5.40
2022-10-28T22:04:56.847Z,5.03
2022-10-28T22:07:24.919Z,5.43
2022-10-28T22:23:43.794Z,4.80
2022-10-28T22:26:14.102Z,4.97
2022-10-28T22:28:42.663Z,5.25
2022-10-28T22:31:12.402Z,4.80
2022-10-28T22:33:41.958Z,5.13
2022-10-28T22:36:11.937Z,4.88
2022-10-28T22:38:40.400Z,4.38
2022-10-28T22:43:59.881Z,4.15
2022-10-28T22:46:29.410Z,4.55
2022-10-28T22:48:58.908Z,4.40
2022-10-28T22:51:27.006Z,4.07
2022-10-28T22:56:40.784Z,4.60
2022-10-28T22:59:08.772Z,4.03
2022-10-28T23:01:36.829Z,3.30
2022-10-28T23:04:11.152Z,4.50
2022-10-28T23:09:24.657Z,3.92
2022-10-28T23:11:52.668Z,3.58
2022-10-28T23:17:07.942Z,4.78
2022-10-28T23:22:22.910Z,4.20
2022-10-28T23:24:51.134Z,4.53
2022-10-28T23:27:19.029Z,3.70
2022-10-28T23:29:47.115Z,4.05
2022-10-28T23:35:01.818Z,4.05
2022-10-28T23:37:30.115Z,4.15
2022-10-28T23:39:58.110Z,4.82
2022-10-28T23:47:57.278Z,4.25
2022-10-28T23:50:26.714Z,4.50
2022-10-28T23:52:56.160Z,4.45
2022-10-28T23:55:24.206Z,3.83
